sensor_id;sensor_type;location;lat;lon;timestamp;pressure;altitude;pressure_sealevel;temperature;humidity
21980;BME280;11154;48.558;9.234;2022-11-15T00:00:51;97328.28;;;15.69;67.71
21980;BME280;11154;48.558;9.234;2022-11-15T00:02:53;97326.50;;;15.83;65.88
21980;BME280;11154;48.558;9.234;2022-11-15T00:04:55;97319.16;;;15.97;64.58
21980;BME280;11154;48.558;9.234;2022-11-15T00:06:57;97325.59;;;16.09;63.85
21980;BME280;11154;48.558;9.234;2022-11-15T00:08:59;97308.09;;;16.20;62.91
21980;BME280;11154;48.558;9.234;2022-11-15T00:11:02;97319.94;;;16.32;61.90
21980;BME280;11154;48.558;9.234;2022-11-15T00:13:05;97312.31;;;16.42;61.12
21980;BME280;11154;48.558;9.234;2022-11-15T00:15:08;97309.66;;;16.48;60.56
21980;BME280;11154;48.558;9.234;2022-11-15T00:17:11;97309.25;;;16.58;59.98
21980;BME280;11154;48.558;9.234;2022-11-15T00:19:12;97310.09;;;16.64;59.40
21980;BME280;11154;48.558;9.234;2022-11-15T00:21:14;97311.97;;;16.70;58.72
21980;BME280;11154;48.558;9.234;2022-11-15T00:23:16;97312.19;;;16.75;58.50
21980;BME280;11154;48.558;9.234;2022-11-15T00:25:18;97293.38;;;16.82;58.16
21980;BME280;11154;48.558;9.234;2022-11-15T00:27:19;97256.06;;;13.32;69.38
21980;BME280;11154;48.558;9.234;2022-11-15T00:29:21;97259.72;;;10.91;86.76
21980;BME280;11154;48.558;9.234;2022-11-15T00:31:23;97257.13;;;10.04;95.84
21980;BME280;11154;48.558;9.234;2022-11-15T00:33:26;97266.94;;;9.62;100.00
21980;BME280;11154;48.558;9.234;2022-11-15T00:35:27;97268.19;;;9.34;100.00
21980;BME280;11154;48.558;9.234;2022-11-15T00:37:29;97266.78;;;9.15;100.00
21980;BME280;11154;48.558;9.234;2022-11-15T00:39:30;97269.19;;;9.00;100.00
21980;BME280;11154;48.558;9.234;2022-11-15T00:41:32;97260.53;;;8.90;100.00
21980;BME280;11154;48.558;9.234;2022-11-15T00:43:35;97257.81;;;8.82;100.00
21980;BME280;11154;48.558;9.234;2022-11-15T00:45:37;97263.91;;;8.75;100.00
21980;BME280;11154;48.558;9.234;2022-11-15T00:47:38;97254.66;;;8.79;100.00
21980;BME280;11154;48.558;9.234;2022-11-15T00:49:41;97260.41;;;8.74;100.00
21980;BME280;11154;48.558;9.234;2022-11-15T00:51:43;97253.31;;;8.75;100.00
21980;BME280;11154;48.558;9.234;2022-11-15T00:53:44;97248.31;;;8.72;100.00
21980;BME280;11154;48.558;9.234;2022-11-15T00:55:46;97255.91;;;8.67;100.00
21980;BME280;11154;48.558;9.234;2022-11-15T00:57:47;97259.06;;;8.70;100.00
21980;BME280;11154;48.558;9.234;2022-11-15T00:59:49;97254.25;;;8.66;100.00
21980;BME280;11154;48.558;9.234;2022-11-15T01:01:51;97245.31;;;8.67;100.00
21980;BME280;11154;48.558;9.234;2022-11-15T01:03:52;97246.75;;;8.61;100.00
21980;BME280;11154;48.558;9.234;2022-11-15T01:05:58;97247.38;;;8.56;100.00
21980;BME280;11154;48.558;9.234;2022-11-15T01:08:00;97246.19;;;8.50;100.00
21980;BME280;11154;48.558;9.234;2022-11-15T01:10:02;97242.84;;;8.48;100.00
21980;BME280;11154;48.558;9.234;2022-11-15T01:12:04;97242.50;;;8.43;100.00
21980;BME280;11154;48.558;9.234;2022-11-15T01:14:06;97240.94;;;8.33;100.00
21980;BME280;11154;48.558;9.234;2022-11-15T01:16:10;97241.72;;;8.25;100.00
21980;BME280;11154;48.558;9.234;2022-11-15T01:18:12;97238.75;;;8.28;100.00
21980;BME280;11154;48.558;9.234;2022-11-15T01:20:13;97234.06;;;8.22;100.00
21980;BME280;11154;48.558;9.234;2022-11-15T01:22:16;97233.97;;;8.32;100.00
21980;BME280;11154;48.558;9.234;2022-11-15T01:24:18;97240.63;;;8.36;100.00
21980;BME280;11154;48.558;9.234;2022-11-15T01:26:19;97236.44;;;8.33;100.00
21980;BME280;11154;48.558;9.234;2022-11-15T01:28:21;97243.75;;;8.31;100.00
21980;BME280;11154;48.558;9.234;2022-11-15T01:30:23;97234.06;;;8.22;100.00
21980;BME280;11154;48.558;9.234;2022-11-15T01:32:24;97230.50;;;8.14;100.00
21980;BME280;11154;48.558;9.234;2022-11-15T01:34:26;97240.56;;;8.10;100.00
21980;BME280;11154;48.558;9.234;2022-11-15T01:36:27;97234.13;;;8.13;100.00
21980;BME280;11154;48.558;9.234;2022-11-15T01:38:30;97215.00;;;8.19;100.00
21980;BME280;11154;48.558;9.234;2022-11-15T01:40:32;97224.59;;;8.20;100.00
21980;BME280;11154;48.558;9.234;2022-11-15T01:42:33;97227.41;;;8.18;100.00
21980;BME280;11154;48.558;9.234;2022-11-15T01:44:40;97232.41;;;8.21;100.00
21980;BME280;11154;48.558;9.234;2022-11-15T01:46:44;97224.91;;;8.17;100.00
21980;BME280;11154;48.558;9.234;2022-11-15T01:48:47;97220.13;;;8.20;100.00
21980;BME280;11154;48.558;9.234;2022-11-15T01:50:50;97215.16;;;8.17;100.00
21980;BME280;11154;48.558;9.234;2022-11-15T01:52:52;97228.00;;;8.12;100.00
21980;BME280;11154;48.558;9.234;2022-11-15T01:54:59;97225.91;;;8.16;100.00
21980;BME280;11154;48.558;9.234;2022-11-15T01:57:06;97220.88;;;8.13;100.00
21980;BME280;11154;48.558;9.234;2022-11-15T01:59:08;97222.41;;;8.15;100.00
21980;BME280;11154;48.558;9.234;2022-11-15T02:01:12;97217.81;;;8.17;100.00
21980;BME280;11154;48.558;9.234;2022-11-15T02:03:14;97220.75;;;8.14;100.00
21980;BME280;11154;48.558;9.234;2022-11-15T02:05:15;97217.13;;;8.15;100.00
21980;BME280;11154;48.558;9.234;2022-11-15T02:07:19;97218.78;;;8.16;100.00
21980;BME280;11154;48.558;9.234;2022-11-15T02:09:22;97210.84;;;8.16;100.00
21980;BME280;11154;48.558;9.234;2022-11-15T02:11:25;97210.44;;;8.11;100.00
21980;BME280;11154;48.558;9.234;2022-11-15T02:13:27;97207.13;;;8.09;100.00
21980;BME280;11154;48.558;9.234;2022-11-15T02:15:34;97203.50;;;8.10;100.00
21980;BME280;11154;48.558;9.234;2022-11-15T02:17:55;97200.78;;;8.02;100.00
21980;BME280;11154;48.558;9.234;2022-11-15T02:20:28;97200.56;;;7.96;100.00
21980;BME280;11154;48.558;9.234;2022-11-15T02:22:37;97195.81;;;7.99;100.00
21980;BME280;11154;48.558;9.234;2022-11-15T02:25:02;97190.19;;;8.02;100.00
21980;BME280;11154;48.558;9.234;2022-11-15T02:30:22;97192.84;;;7.85;100.00
21980;BME280;11154;48.558;9.234;2022-11-15T02:32:28;97185.22;;;7.82;100.00
21980;BME280;11154;48.558;9.234;2022-11-15T02:34:39;97192.63;;;7.79;100.00
21980;BME280;11154;48.558;9.234;2022-11-15T02:36:52;97190.53;;;7.82;100.00
21980;BME280;11154;48.558;9.234;2022-11-15T02:39:00;97181.97;;;7.71;100.00
21980;BME280;11154;48.558;9.234;2022-11-15T02:41:07;97176.47;;;7.82;100.00
21980;BME280;11154;48.558;9.234;2022-11-15T02:43:16;97181.97;;;7.88;100.00
21980;BME280;11154;48.558;9.234;2022-11-15T02:45:40;97179.16;;;7.89;100.00
21980;BME280;11154;48.558;9.234;2022-11-15T02:47:48;97172.97;;;7.81;100.00
21980;BME280;11154;48.558;9.234;2022-11-15T02:49:52;97177.97;;;7.84;100.00
21980;BME280;11154;48.558;9.234;2022-11-15T02:51:55;97177.13;;;7.84;100.00
21980;BME280;11154;48.558;9.234;2022-11-15T02:53:57;97170.84;;;7.85;100.00
21980;BME280;11154;48.558;9.234;2022-11-15T02:55:58;97172.69;;;7.84;100.00
21980;BME280;11154;48.558;9.234;2022-11-15T02:58:16;97170.94;;;7.92;100.00
21980;BME280;11154;48.558;9.234;2022-11-15T03:00:21;97172.16;;;7.81;100.00
21980;BME280;11154;48.558;9.234;2022-11-15T03:02:42;97166.47;;;7.76;100.00
21980;BME280;11154;48.558;9.234;2022-11-15T03:04:53;97168.75;;;7.71;100.00
21980;BME280;11154;48.558;9.234;2022-11-15T03:07:04;97171.19;;;7.64;100.00
21980;BME280;11154;48.558;9.234;2022-11-15T03:09:10;97163.78;;;7.68;100.00
21980;BME280;11154;48.558;9.234;2022-11-15T03:11:18;97166.88;;;7.63;100.00
21980;BME280;11154;48.558;9.234;2022-11-15T03:13:24;97157.34;;;7.70;100.00
21980;BME280;11154;48.558;9.234;2022-11-15T03:15:30;97144.38;;;7.59;100.00
21980;BME280;11154;48.558;9.234;2022-11-15T03:17:36;97146.53;;;7.64;100.00
21980;BME280;11154;48.558;9.234;2022-11-15T03:19:44;97151.81;;;7.64;100.00
21980;BME280;11154;48.558;9.234;2022-11-15T03:21:48;97150.03;;;7.64;100.00
21980;BME280;11154;48.558;9.234;2022-11-15T03:23:51;97137.78;;;7.63;100.00
21980;BME280;11154;48.558;9.234;2022-11-15T03:25:56;97131.66;;;7.63;100.00
21980;BME280;11154;48.558;9.234;2022-11-15T03:28:01;97136.78;;;7.64;100.00
21980;BME280;11154;48.558;9.234;2022-11-15T03:30:06;97131.50;;;7.64;100.00
21980;BME280;11154;48.558;9.234;2022-11-15T03:32:12;97136.00;;;7.72;100.00
21980;BME280;11154;48.558;9.234;2022-11-15T03:34:21;97142.59;;;7.68;100.00
21980;BME280;11154;48.558;9.234;2022-11-15T03:36:26;97136.34;;;7.69;100.00
21980;BME280;11154;48.558;9.234;2022-11-15T03:38:31;97130.81;;;7.62;100.00
21980;BME280;11154;48.558;9.234;2022-11-15T03:40:37;97124.38;;;7.65;100.00
21980;BME280;11154;48.558;9.234;2022-11-15T03:42:44;97121.28;;;7.69;100.00
21980;BME280;11154;48.558;9.234;2022-11-15T03:44:52;97119.16;;;7.73;100.00
21980;BME280;11154;48.558;9.234;2022-11-15T03:47:00;97113.88;;;7.73;100.00
21980;BME280;11154;48.558;9.234;2022-11-15T03:49:08;97121.44;;;7.68;100.00
21980;BME280;11154;48.558;9.234;2022-11-15T03:51:13;97116.69;;;7.54;100.00
21980;BME280;11154;48.558;9.234;2022-11-15T03:53:15;97114.94;;;7.45;100.00
21980;BME280;11154;48.558;9.234;2022-11-15T03:55:18;97105.22;;;7.45;100.00
21980;BME280;11154;48.558;9.234;2022-11-15T03:57:21;97103.63;;;7.35;100.00
21980;BME280;11154;48.558;9.234;2022-11-15T03:59:22;97110.06;;;7.32;100.00
21980;BME280;11154;48.558;9.234;2022-11-15T04:01:24;97116.47;;;7.30;100.00
21980;BME280;11154;48.558;9.234;2022-11-15T04:03:26;97148.34;;;8.06;100.00
21980;BME280;11154;48.558;9.234;2022-11-15T04:05:27;97162.44;;;8.32;100.00
21980;BME280;11154;48.558;9.234;2022-11-15T04:07:30;97152.44;;;8.43;100.00
21980;BME280;11154;48.558;9.234;2022-11-15T04:09:32;97151.16;;;8.55;100.00
21980;BME280;11154;48.558;9.234;2022-11-15T04:11:55;97142.13;;;8.65;100.00
21980;BME280;11154;48.558;9.234;2022-11-15T04:13:56;97146.81;;;8.79;100.00
21980;BME280;11154;48.558;9.234;2022-11-15T04:15:58;97141.22;;;8.90;100.00
21980;BME280;11154;48.558;9.234;2022-11-15T04:17:59;97148.41;;;9.06;100.00
21980;BME280;11154;48.558;9.234;2022-11-15T04:20:01;97154.53;;;9.14;100.00
21980;BME280;11154;48.558;9.234;2022-11-15T04:22:17;97140.50;;;9.22;100.00
21980;BME280;11154;48.558;9.234;2022-11-15T04:24:37;97141.34;;;9.30;100.00
21980;BME280;11154;48.558;9.234;2022-11-15T04:26:39;97143.34;;;9.36;100.00
21980;BME280;11154;48.558;9.234;2022-11-15T04:28:40;97146.50;;;9.39;98.77
21980;BME280;11154;48.558;9.234;2022-11-15T04:30:56;97140.19;;;9.48;99.58
21980;BME280;11154;48.558;9.234;2022-11-15T04:32:58;97144.19;;;9.68;100.00
21980;BME280;11154;48.558;9.234;2022-11-15T04:34:59;97141.22;;;9.87;100.00
21980;BME280;11154;48.558;9.234;2022-11-15T04:37:01;97134.72;;;9.90;100.00
21980;BME280;11154;48.558;9.234;2022-11-15T04:39:13;97132.25;;;9.96;98.04
21980;BME280;11154;48.558;9.234;2022-11-15T04:41:16;97131.63;;;10.02;97.35
21980;BME280;11154;48.558;9.234;2022-11-15T04:43:19;97134.28;;;10.10;96.31
21980;BME280;11154;48.558;9.234;2022-11-15T04:45:20;97126.63;;;10.15;96.13
21980;BME280;11154;48.558;9.234;2022-11-15T04:47:22;97133.91;;;10.21;94.87
21980;BME280;11154;48.558;9.234;2022-11-15T04:49:24;97137.38;;;10.21;94.96
21980;BME280;11154;48.558;9.234;2022-11-15T04:51:26;97130.75;;;10.17;93.04
21980;BME280;11154;48.558;9.234;2022-11-15T04:53:27;97130.28;;;10.14;92.41
21980;BME280;11154;48.558;9.234;2022-11-15T04:55:29;97112.00;;;10.11;91.49
21980;BME280;11154;48.558;9.234;2022-11-15T04:57:32;97118.97;;;10.12;92.05
21980;BME280;11154;48.558;9.234;2022-11-15T04:59:33;97123.66;;;10.10;92.06
21980;BME280;11154;48.558;9.234;2022-11-15T05:01:35;97124.47;;;10.10;92.48
21980;BME280;11154;48.558;9.234;2022-11-15T05:03:38;97125.28;;;10.11;92.69
21980;BME280;11154;48.558;9.234;2022-11-15T05:05:57;97115.50;;;10.11;93.17
21980;BME280;11154;48.558;9.234;2022-11-15T05:07:58;97112.66;;;10.13;92.81
21980;BME280;11154;48.558;9.234;2022-11-15T05:10:00;97116.66;;;10.17;92.97
21980;BME280;11154;48.558;9.234;2022-11-15T05:12:02;97113.16;;;10.16;92.72
21980;BME280;11154;48.558;9.234;2022-11-15T05:14:05;97108.34;;;10.20;93.37
21980;BME280;11154;48.558;9.234;2022-11-15T05:16:06;97113.34;;;10.23;93.88
21980;BME280;11154;48.558;9.234;2022-11-15T05:18:08;97116.31;;;10.28;93.77
21980;BME280;11154;48.558;9.234;2022-11-15T05:20:10;97108.16;;;10.29;93.34
21980;BME280;11154;48.558;9.234;2022-11-15T05:22:12;97120.63;;;10.29;92.73
21980;BME280;11154;48.558;9.234;2022-11-15T05:24:14;97119.59;;;10.30;92.52
21980;BME280;11154;48.558;9.234;2022-11-15T05:26:16;97114.97;;;10.24;90.91
21980;BME280;11154;48.558;9.234;2022-11-15T05:28:18;97113.34;;;10.23;91.14
21980;BME280;11154;48.558;9.234;2022-11-15T05:30:21;97113.66;;;10.20;90.43
21980;BME280;11154;48.558;9.234;2022-11-15T05:32:23;97117.31;;;10.19;89.82
21980;BME280;11154;48.558;9.234;2022-11-15T05:34:25;97103.72;;;10.14;89.67
21980;BME280;11154;48.558;9.234;2022-11-15T05:36:31;97111.50;;;10.15;89.61
21980;BME280;11154;48.558;9.234;2022-11-15T05:38:34;97113.53;;;10.13;90.69
21980;BME280;11154;48.558;9.234;2022-11-15T05:40:36;97112.34;;;10.16;90.11
21980;BME280;11154;48.558;9.234;2022-11-15T05:42:38;97108.69;;;10.17;90.62
21980;BME280;11154;48.558;9.234;2022-11-15T05:44:42;97109.16;;;10.20;91.05
21980;BME280;11154;48.558;9.234;2022-11-15T05:46:48;97101.84;;;10.22;90.81
21980;BME280;11154;48.558;9.234;2022-11-15T05:48:51;97095.38;;;10.25;90.27
21980;BME280;11154;48.558;9.234;2022-11-15T05:50:54;97105.00;;;10.26;90.10
21980;BME280;11154;48.558;9.234;2022-11-15T05:52:57;97108.50;;;10.26;89.99
21980;BME280;11154;48.558;9.234;2022-11-15T05:54:59;97104.00;;;10.27;90.37
21980;BME280;11154;48.558;9.234;2022-11-15T05:57:01;97112.66;;;10.29;90.54
21980;BME280;11154;48.558;9.234;2022-11-15T05:59:03;97101.19;;;10.28;89.98
21980;BME280;11154;48.558;9.234;2022-11-15T06:01:05;97095.03;;;10.28;88.75
21980;BME280;11154;48.558;9.234;2022-11-15T06:03:08;97113.28;;;10.31;89.57
21980;BME280;11154;48.558;9.234;2022-11-15T06:05:10;97095.69;;;10.30;90.26
21980;BME280;11154;48.558;9.234;2022-11-15T06:07:12;97094.69;;;10.31;90.77
21980;BME280;11154;48.558;9.234;2022-11-15T06:09:13;97096.34;;;10.32;90.76
21980;BME280;11154;48.558;9.234;2022-11-15T06:11:15;97098.03;;;10.33;90.27
21980;BME280;11154;48.558;9.234;2022-11-15T06:13:18;97089.06;;;10.34;90.69
21980;BME280;11154;48.558;9.234;2022-11-15T06:15:19;97103.34;;;10.33;90.21
21980;BME280;11154;48.558;9.234;2022-11-15T06:17:21;97095.03;;;10.36;91.11
21980;BME280;11154;48.558;9.234;2022-11-15T06:19:24;97103.00;;;10.36;90.98
21980;BME280;11154;48.558;9.234;2022-11-15T06:21:25;97100.34;;;10.36;90.37
21980;BME280;11154;48.558;9.234;2022-11-15T06:23:32;97100.34;;;10.36;90.93
21980;BME280;11154;48.558;9.234;2022-11-15T06:25:34;97106.31;;;10.38;90.49
21980;BME280;11154;48.558;9.234;2022-11-15T06:27:35;97101.34;;;10.35;89.19
21980;BME280;11154;48.558;9.234;2022-11-15T06:29:37;97105.81;;;10.34;89.65
21980;BME280;11154;48.558;9.234;2022-11-15T06:31:38;97108.16;;;10.29;88.49
21980;BME280;11154;48.558;9.234;2022-11-15T06:33:41;97107.34;;;10.29;89.43
21980;BME280;11154;48.558;9.234;2022-11-15T06:35:44;97105.31;;;10.31;88.76
21980;BME280;11154;48.558;9.234;2022-11-15T06:37:47;97108.97;;;10.30;88.39
21980;BME280;11154;48.558;9.234;2022-11-15T06:39:49;97109.16;;;10.28;89.04
21980;BME280;11154;48.558;9.234;2022-11-15T06:41:50;97111.63;;;10.30;89.39
21980;BME280;11154;48.558;9.234;2022-11-15T06:43:52;97115.63;;;10.34;89.87
21980;BME280;11154;48.558;9.234;2022-11-15T06:45:54;97109.13;;;10.36;89.74
21980;BME280;11154;48.558;9.234;2022-11-15T06:47:55;97111.63;;;10.38;89.84
21980;BME280;11154;48.558;9.234;2022-11-15T06:49:57;97107.78;;;10.40;89.63
21980;BME280;11154;48.558;9.234;2022-11-15T06:52:00;97098.63;;;10.43;89.71
21980;BME280;11154;48.558;9.234;2022-11-15T06:54:02;97108.13;;;10.45;89.39
21980;BME280;11154;48.558;9.234;2022-11-15T06:56:05;97107.28;;;10.45;90.18
21980;BME280;11154;48.558;9.234;2022-11-15T06:58:07;97104.63;;;10.45;89.67
21980;BME280;11154;48.558;9.234;2022-11-15T07:00:12;97110.94;;;10.44;90.20
21980;BME280;11154;48.558;9.234;2022-11-15T07:02:14;97105.63;;;10.44;90.27
21980;BME280;11154;48.558;9.234;2022-11-15T07:04:15;97105.47;;;10.45;90.08
21980;BME280;11154;48.558;9.234;2022-11-15T07:06:17;97106.78;;;10.41;89.92
21980;BME280;11154;48.558;9.234;2022-11-15T07:08:20;97102.31;;;10.42;90.13
21980;BME280;11154;48.558;9.234;2022-11-15T07:10:22;97106.63;;;10.43;90.30
21980;BME280;11154;48.558;9.234;2022-11-15T07:12:26;97104.63;;;10.45;90.43
21980;BME280;11154;48.558;9.234;2022-11-15T07:14:28;97107.28;;;10.45;90.23
21980;BME280;11154;48.558;9.234;2022-11-15T07:16:30;97102.63;;;10.47;90.64
21980;BME280;11154;48.558;9.234;2022-11-15T07:18:33;97099.13;;;10.46;90.16
21980;BME280;11154;48.558;9.234;2022-11-15T07:20:35;97100.47;;;10.50;90.92
21980;BME280;11154;48.558;9.234;2022-11-15T07:22:37;97099.09;;;10.54;90.96
21980;BME280;11154;48.558;9.234;2022-11-15T07:24:40;97109.22;;;10.59;91.83
21980;BME280;11154;48.558;9.234;2022-11-15T07:26:41;97109.22;;;10.59;91.32
21980;BME280;11154;48.558;9.234;2022-11-15T07:28:43;97109.72;;;10.62;91.31
21980;BME280;11154;48.558;9.234;2022-11-15T07:30:44;97110.53;;;10.63;91.48
21980;BME280;11154;48.558;9.234;2022-11-15T07:32:46;97112.69;;;10.67;92.01
21980;BME280;11154;48.558;9.234;2022-11-15T07:34:47;97106.19;;;10.70;92.25
21980;BME280;11154;48.558;9.234;2022-11-15T07:36:49;97096.91;;;10.74;92.78
21980;BME280;11154;48.558;9.234;2022-11-15T07:38:51;97097.53;;;10.76;92.64
21980;BME280;11154;48.558;9.234;2022-11-15T07:40:58;97095.53;;;10.77;93.34
21980;BME280;11154;48.558;9.234;2022-11-15T07:43:00;97092.53;;;10.80;92.84
21980;BME280;11154;48.558;9.234;2022-11-15T07:45:03;97093.19;;;10.82;93.01
21980;BME280;11154;48.558;9.234;2022-11-15T07:47:05;97093.84;;;10.84;93.17
21980;BME280;11154;48.558;9.234;2022-11-15T07:49:06;97097.66;;;10.90;93.40
21980;BME280;11154;48.558;9.234;2022-11-15T07:51:10;97090.78;;;10.95;92.88
21980;BME280;11154;48.558;9.234;2022-11-15T07:53:12;97090.94;;;11.02;93.72
21980;BME280;11154;48.558;9.234;2022-11-15T07:55:14;97086.09;;;11.05;93.46
21980;BME280;11154;48.558;9.234;2022-11-15T07:57:17;97091.19;;;11.15;93.37
21980;BME280;11154;48.558;9.234;2022-11-15T07:59:19;97079.00;;;11.20;93.12
21980;BME280;11154;48.558;9.234;2022-11-15T08:01:20;97065.78;;;10.74;95.69
21980;BME280;11154;48.558;9.234;2022-11-15T08:03:22;97066.47;;;10.30;100.00
21980;BME280;11154;48.558;9.234;2022-11-15T08:05:24;97071.00;;;10.13;100.00
21980;BME280;11154;48.558;9.234;2022-11-15T08:07:28;97067.88;;;10.02;100.00
21980;BME280;11154;48.558;9.234;2022-11-15T08:09:30;97067.66;;;9.96;100.00
21980;BME280;11154;48.558;9.234;2022-11-15T08:11:32;97060.56;;;9.88;100.00
21980;BME280;11154;48.558;9.234;2022-11-15T08:13:35;97052.44;;;9.82;100.00
21980;BME280;11154;48.558;9.234;2022-11-15T08:15:37;97063.72;;;9.84;100.00
21980;BME280;11154;48.558;9.234;2022-11-15T08:17:38;97054.25;;;9.81;100.00
21980;BME280;11154;48.558;9.234;2022-11-15T08:19:40;97061.72;;;9.78;100.00
21980;BME280;11154;48.558;9.234;2022-11-15T08:21:42;97060.91;;;9.77;100.00
21980;BME280;11154;48.558;9.234;2022-11-15T08:23:44;97059.91;;;9.78;100.00
21980;BME280;11154;48.558;9.234;2022-11-15T08:25:45;97057.91;;;9.80;100.00
21980;BME280;11154;48.558;9.234;2022-11-15T08:27:47;97055.91;;;9.82;100.00
21980;BME280;11154;48.558;9.234;2022-11-15T08:29:50;97056.75;;;9.83;100.00
21980;BME280;11154;48.558;9.234;2022-11-15T08:31:54;97055.09;;;9.82;100.00
21980;BME280;11154;48.558;9.234;2022-11-15T08:33:55;97053.09;;;9.84;100.00
21980;BME280;11154;48.558;9.234;2022-11-15T08:35:58;97047.78;;;9.84;100.00
21980;BME280;11154;48.558;9.234;2022-11-15T08:37:59;97048.78;;;9.83;100.00
21980;BME280;11154;48.558;9.234;2022-11-15T08:40:01;97052.41;;;9.90;100.00
21980;BME280;11154;48.558;9.234;2022-11-15T08:42:03;97043.63;;;9.89;100.00
21980;BME280;11154;48.558;9.234;2022-11-15T08:44:04;97052.41;;;9.90;100.00
21980;BME280;11154;48.558;9.234;2022-11-15T08:46:11;97051.09;;;9.94;100.00
21980;BME280;11154;48.558;9.234;2022-11-15T08:48:13;97052.09;;;9.93;100.00
21980;BME280;11154;48.558;9.234;2022-11-15T08:50:16;97039.47;;;9.95;100.00
21980;BME280;11154;48.558;9.234;2022-11-15T08:52:17;97028.03;;;10.02;100.00
21980;BME280;11154;48.558;9.234;2022-11-15T08:54:19;97033.53;;;10.01;100.00
21980;BME280;11154;48.558;9.234;2022-11-15T08:56:21;97028.38;;;9.99;100.00
21980;BME280;11154;48.558;9.234;2022-11-15T08:58:23;97027.84;;;10.04;100.00
21980;BME280;11154;48.558;9.234;2022-11-15T09:00:24;97026.38;;;10.09;100.00
21980;BME280;11154;48.558;9.234;2022-11-15T09:02:29;97026.34;;;10.17;100.00
21980;BME280;11154;48.558;9.234;2022-11-15T09:04:31;97029.81;;;10.17;100.00
21980;BME280;11154;48.558;9.234;2022-11-15T09:06:32;97035.63;;;10.21;100.00
21980;BME280;11154;48.558;9.234;2022-11-15T09:08:34;97029.25;;;10.30;100.00
21980;BME280;11154;48.558;9.234;2022-11-15T09:10:35;97012.97;;;10.33;100.00
21980;BME280;11154;48.558;9.234;2022-11-15T09:12:37;97023.44;;;10.34;100.00
21980;BME280;11154;48.558;9.234;2022-11-15T09:14:39;97020.94;;;10.41;100.00
21980;BME280;11154;48.558;9.234;2022-11-15T09:16:40;97021.91;;;10.48;100.00
21980;BME280;11154;48.558;9.234;2022-11-15T09:18:43;97009.72;;;10.53;100.00
21980;BME280;11154;48.558;9.234;2022-11-15T09:20:45;97022.50;;;10.58;100.00
21980;BME280;11154;48.558;9.234;2022-11-15T09:22:46;97014.19;;;10.61;100.00
21980;BME280;11154;48.558;9.234;2022-11-15T09:24:48;97020.34;;;10.61;100.00
21980;BME280;11154;48.558;9.234;2022-11-15T09:26:50;97012.84;;;10.65;100.00
21980;BME280;11154;48.558;9.234;2022-11-15T09:28:52;97010.34;;;10.63;100.00
21980;BME280;11154;48.558;9.234;2022-11-15T09:30:56;97011.19;;;10.64;100.00
21980;BME280;11154;48.558;9.234;2022-11-15T09:32:59;97011.00;;;10.65;100.00
21980;BME280;11154;48.558;9.234;2022-11-15T09:35:08;97015.50;;;10.65;100.00
21980;BME280;11154;48.558;9.234;2022-11-15T09:37:10;97020.63;;;10.66;100.00
21980;BME280;11154;48.558;9.234;2022-11-15T09:39:12;97011.19;;;10.64;100.00
21980;BME280;11154;48.558;9.234;2022-11-15T09:41:25;97009.50;;;10.63;100.00
21980;BME280;11154;48.558;9.234;2022-11-15T09:43:39;97003.69;;;10.67;100.00
21980;BME280;11154;48.558;9.234;2022-11-15T09:45:54;97012.13;;;10.71;100.00
21980;BME280;11154;48.558;9.234;2022-11-15T09:48:26;97003.66;;;10.75;100.00
21980;BME280;11154;48.558;9.234;2022-11-15T09:50:36;97002.47;;;10.77;100.00
21980;BME280;11154;48.558;9.234;2022-11-15T09:52:43;97006.91;;;10.85;100.00
21980;BME280;11154;48.558;9.234;2022-11-15T09:54:47;97002.41;;;10.85;100.00
21980;BME280;11154;48.558;9.234;2022-11-15T09:56:50;96997.69;;;10.95;100.00
21980;BME280;11154;48.558;9.234;2022-11-15T09:59:00;96994.28;;;11.09;100.00
21980;BME280;11154;48.558;9.234;2022-11-15T10:01:08;96994.22;;;11.17;100.00
21980;BME280;11154;48.558;9.234;2022-11-15T10:03:16;96994.78;;;11.27;100.00
21980;BME280;11154;48.558;9.234;2022-11-15T10:05:20;96988.56;;;11.35;100.00
21980;BME280;11154;48.558;9.234;2022-11-15T10:07:28;96995.88;;;11.41;100.00
21980;BME280;11154;48.558;9.234;2022-11-15T10:09:37;96994.28;;;11.46;100.00
21980;BME280;11154;48.558;9.234;2022-11-15T10:11:41;96991.94;;;11.51;100.00
21980;BME280;11154;48.558;9.234;2022-11-15T10:13:45;96988.88;;;11.62;100.00
21980;BME280;11154;48.558;9.234;2022-11-15T10:15:48;96989.34;;;11.65;100.00
21980;BME280;11154;48.558;9.234;2022-11-15T10:18:07;96982.09;;;11.74;100.00
21980;BME280;11154;48.558;9.234;2022-11-15T10:20:14;96976.03;;;11.80;100.00
21980;BME280;11154;48.558;9.234;2022-11-15T10:22:26;96978.44;;;11.89;100.00
21980;BME280;11154;48.558;9.234;2022-11-15T10:24:32;96981.66;;;11.99;100.00
21980;BME280;11154;48.558;9.234;2022-11-15T10:26:35;96975.69;;;12.12;100.00
21980;BME280;11154;48.558;9.234;2022-11-15T10:28:37;96966.94;;;12.18;100.00
21980;BME280;11154;48.558;9.234;2022-11-15T10:30:40;96971.19;;;12.26;100.00
21980;BME280;11154;48.558;9.234;2022-11-15T10:32:43;96959.78;;;12.32;100.00
21980;BME280;11154;48.558;9.234;2022-11-15T10:34:46;96957.19;;;12.39;100.00
21980;BME280;11154;48.558;9.234;2022-11-15T10:36:54;96958.75;;;12.48;100.00
21980;BME280;11154;48.558;9.234;2022-11-15T10:38:58;96956.53;;;12.51;100.00
21980;BME280;11154;48.558;9.234;2022-11-15T10:41:06;96954.13;;;12.56;100.00
21980;BME280;11154;48.558;9.234;2022-11-15T10:43:15;96957.44;;;12.58;100.00
21980;BME280;11154;48.558;9.234;2022-11-15T10:45:25;96945.81;;;12.66;100.00
21980;BME280;11154;48.558;9.234;2022-11-15T10:47:30;96948.75;;;12.71;100.00
21980;BME280;11154;48.558;9.234;2022-11-15T10:49:33;96943.66;;;12.76;100.00
21980;BME280;11154;48.558;9.234;2022-11-15T10:51:40;96944.75;;;12.81;100.00
21980;BME280;11154;48.558;9.234;2022-11-15T10:53:44;96936.34;;;12.84;100.00
21980;BME280;11154;48.558;9.234;2022-11-15T10:55:49;96937.84;;;12.87;100.00
21980;BME280;11154;48.558;9.234;2022-11-15T10:57:53;96937.56;;;12.96;100.00